sensor_id;sensor_type;location;lat;lon;timestamp;temperature;humidity
41882;DHT22;27562;47.524;12.404;2022-10-18T00:01:45;8.90;99.90
41882;DHT22;27562;47.524;12.404;2022-10-18T00:04:11;8.80;99.90
41882;DHT22;27562;47.524;12.404;2022-10-18T00:06:37;8.80;99.90
41882;DHT22;27562;47.524;12.404;2022-10-18T00:09:02;8.80;99.90
41882;DHT22;27562;47.524;12.404;2022-10-18T00:11:28;8.80;99.90
41882;DHT22;27562;47.524;12.404;2022-10-18T00:13:54;8.80;99.90
41882;DHT22;27562;47.524;12.404;2022-10-18T00:16:20;8.90;99.90
41882;DHT22;27562;47.524;12.404;2022-10-18T00:18:45;8.90;99.90
41882;DHT22;27562;47.524;12.404;2022-10-18T00:21:14;8.80;99.90
41882;DHT22;27562;47.524;12.404;2022-10-18T00:23:40;8.80;99.90
41882;DHT22;27562;47.524;12.404;2022-10-18T00:26:08;8.80;99.90
41882;DHT22;27562;47.524;12.404;2022-10-18T00:28:34;8.80;99.90
41882;DHT22;27562;47.524;12.404;2022-10-18T00:33:34;8.80;99.90
41882;DHT22;27562;47.524;12.404;2022-10-18T00:36:00;8.70;99.90
41882;DHT22;27562;47.524;12.404;2022-10-18T00:38:25;8.60;99.90
41882;DHT22;27562;47.524;12.404;2022-10-18T00:40:51;8.50;99.90
41882;DHT22;27562;47.524;12.404;2022-10-18T00:43:16;8.40;99.90
41882;DHT22;27562;47.524;12.404;2022-10-18T00:45:42;8.30;99.90
41882;DHT22;27562;47.524;12.404;2022-10-18T00:48:08;8.20;99.90
41882;DHT22;27562;47.524;12.404;2022-10-18T00:50:33;8.20;99.90
41882;DHT22;27562;47.524;12.404;2022-10-18T00:53:00;8.20;99.90
41882;DHT22;27562;47.524;12.404;2022-10-18T00:55:26;8.30;99.90
41882;DHT22;27562;47.524;12.404;2022-10-18T00:57:52;8.30;99.90
41882;DHT22;27562;47.524;12.404;2022-10-18T01:00:19;8.30;99.90
41882;DHT22;27562;47.524;12.404;2022-10-18T01:02:44;8.30;99.90
41882;DHT22;27562;47.524;12.404;2022-10-18T01:05:11;8.30;99.90
41882;DHT22;27562;47.524;12.404;2022-10-18T01:15:44;8.30;99.90
41882;DHT22;27562;47.524;12.404;2022-10-18T01:18:57;8.30;99.90
41882;DHT22;27562;47.524;12.404;2022-10-18T01:21:16;8.30;99.90
41882;DHT22;27562;47.524;12.404;2022-10-18T01:31:12;8.20;99.90
41882;DHT22;27562;47.524;12.404;2022-10-18T01:36:13;8.10;99.90
41882;DHT22;27562;47.524;12.404;2022-10-18T01:38:39;8.10;99.90
41882;DHT22;27562;47.524;12.404;2022-10-18T01:41:06;8.10;99.90
41882;DHT22;27562;47.524;12.404;2022-10-18T01:43:33;8.00;99.90
41882;DHT22;27562;47.524;12.404;2022-10-18T01:45:59;8.00;99.90
41882;DHT22;27562;47.524;12.404;2022-10-18T01:48:25;8.00;99.90
41882;DHT22;27562;47.524;12.404;2022-10-18T01:50:51;7.90;99.90
41882;DHT22;27562;47.524;12.404;2022-10-18T01:53:21;7.90;99.90
41882;DHT22;27562;47.524;12.404;2022-10-18T01:55:53;7.80;99.90
41882;DHT22;27562;47.524;12.404;2022-10-18T01:58:22;7.80;99.90
41882;DHT22;27562;47.524;12.404;2022-10-18T02:00:53;7.80;99.90
41882;DHT22;27562;47.524;12.404;2022-10-18T02:03:24;7.80;99.90
41882;DHT22;27562;47.524;12.404;2022-10-18T02:05:57;7.80;99.90
41882;DHT22;27562;47.524;12.404;2022-10-18T02:08:28;7.80;99.90
41882;DHT22;27562;47.524;12.404;2022-10-18T02:11:05;7.80;99.90
41882;DHT22;27562;47.524;12.404;2022-10-18T02:13:35;7.80;99.90
41882;DHT22;27562;47.524;12.404;2022-10-18T02:16:03;7.80;99.90
41882;DHT22;27562;47.524;12.404;2022-10-18T02:18:33;7.80;99.90
41882;DHT22;27562;47.524;12.404;2022-10-18T02:21:00;7.70;99.90
41882;DHT22;27562;47.524;12.404;2022-10-18T02:23:27;7.60;99.90
41882;DHT22;27562;47.524;12.404;2022-10-18T02:25:53;7.50;99.90
41882;DHT22;27562;47.524;12.404;2022-10-18T02:28:19;7.50;99.90
41882;DHT22;27562;47.524;12.404;2022-10-18T02:33:44;7.50;99.90
41882;DHT22;27562;47.524;12.404;2022-10-18T02:36:18;7.50;99.90
41882;DHT22;27562;47.524;12.404;2022-10-18T02:38:46;7.50;99.90
41882;DHT22;27562;47.524;12.404;2022-10-18T02:41:20;7.40;99.90
41882;DHT22;27562;47.524;12.404;2022-10-18T02:43:46;7.40;99.90
41882;DHT22;27562;47.524;12.404;2022-10-18T02:46:11;7.30;99.90
41882;DHT22;27562;47.524;12.404;2022-10-18T02:48:37;7.30;99.90
41882;DHT22;27562;47.524;12.404;2022-10-18T02:51:02;7.30;99.90
41882;DHT22;27562;47.524;12.404;2022-10-18T02:53:28;7.30;99.90
41882;DHT22;27562;47.524;12.404;2022-10-18T02:55:53;7.30;99.90
41882;DHT22;27562;47.524;12.404;2022-10-18T02:58:19;7.20;99.90
41882;DHT22;27562;47.524;12.404;2022-10-18T03:00:44;7.10;99.90
41882;DHT22;27562;47.524;12.404;2022-10-18T03:03:10;7.10;99.90
41882;DHT22;27562;47.524;12.404;2022-10-18T03:05:35;7.00;99.90
41882;DHT22;27562;47.524;12.404;2022-10-18T03:08:01;7.00;99.90
41882;DHT22;27562;47.524;12.404;2022-10-18T03:10:26;7.00;99.90
41882;DHT22;27562;47.524;12.404;2022-10-18T03:12:52;7.00;99.90
41882;DHT22;27562;47.524;12.404;2022-10-18T03:15:18;7.10;99.90
41882;DHT22;27562;47.524;12.404;2022-10-18T03:17:43;7.10;99.90
41882;DHT22;27562;47.524;12.404;2022-10-18T03:20:09;7.10;99.90
41882;DHT22;27562;47.524;12.404;2022-10-18T03:22:34;7.10;99.90
41882;DHT22;27562;47.524;12.404;2022-10-18T03:25:00;7.10;99.90
41882;DHT22;27562;47.524;12.404;2022-10-18T03:27:25;7.10;99.90
41882;DHT22;27562;47.524;12.404;2022-10-18T03:29:51;7.10;99.90
41882;DHT22;27562;47.524;12.404;2022-10-18T03:32:16;7.10;99.90
41882;DHT22;27562;47.524;12.404;2022-10-18T03:34:43;7.00;99.90
41882;DHT22;27562;47.524;12.404;2022-10-18T03:37:09;7.00;99.90
41882;DHT22;27562;47.524;12.404;2022-10-18T03:39:34;7.00;99.90
41882;DHT22;27562;47.524;12.404;2022-10-18T03:42:00;7.00;99.90
41882;DHT22;27562;47.524;12.404;2022-10-18T03:44:25;6.90;99.90
41882;DHT22;27562;47.524;12.404;2022-10-18T03:46:51;6.80;99.90
41882;DHT22;27562;47.524;12.404;2022-10-18T03:49:16;6.80;99.90
41882;DHT22;27562;47.524;12.404;2022-10-18T03:51:42;6.60;99.90
41882;DHT22;27562;47.524;12.404;2022-10-18T03:54:07;6.60;99.90
41882;DHT22;27562;47.524;12.404;2022-10-18T03:56:33;6.60;99.90
41882;DHT22;27562;47.524;12.404;2022-10-18T03:58:59;6.60;99.90
41882;DHT22;27562;47.524;12.404;2022-10-18T04:01:24;6.70;99.90
41882;DHT22;27562;47.524;12.404;2022-10-18T04:03:50;6.70;99.90
41882;DHT22;27562;47.524;12.404;2022-10-18T04:06:16;6.60;99.90
41882;DHT22;27562;47.524;12.404;2022-10-18T04:08:42;6.60;99.90
41882;DHT22;27562;47.524;12.404;2022-10-18T04:11:07;6.60;99.90
41882;DHT22;27562;47.524;12.404;2022-10-18T04:13:34;6.50;99.90
41882;DHT22;27562;47.524;12.404;2022-10-18T04:15:59;6.60;99.90
41882;DHT22;27562;47.524;12.404;2022-10-18T04:18:25;6.60;99.90
41882;DHT22;27562;47.524;12.404;2022-10-18T04:20:51;6.60;99.90
41882;DHT22;27562;47.524;12.404;2022-10-18T04:23:16;6.50;99.90
41882;DHT22;27562;47.524;12.404;2022-10-18T04:25:42;6.50;99.90
41882;DHT22;27562;47.524;12.404;2022-10-18T04:28:07;6.50;99.90
41882;DHT22;27562;47.524;12.404;2022-10-18T04:30:33;6.50;99.90
41882;DHT22;27562;47.524;12.404;2022-10-18T04:32:58;6.50;99.90
41882;DHT22;27562;47.524;12.404;2022-10-18T04:35:24;6.50;99.90
41882;DHT22;27562;47.524;12.404;2022-10-18T04:37:50;6.40;99.90
41882;DHT22;27562;47.524;12.404;2022-10-18T04:40:15;6.30;99.90
41882;DHT22;27562;47.524;12.404;2022-10-18T04:42:41;6.30;99.90
41882;DHT22;27562;47.524;12.404;2022-10-18T04:45:07;6.30;99.90
41882;DHT22;27562;47.524;12.404;2022-10-18T04:47:32;6.40;99.90
41882;DHT22;27562;47.524;12.404;2022-10-18T04:49:58;6.40;99.90
41882;DHT22;27562;47.524;12.404;2022-10-18T04:52:23;6.40;99.90
41882;DHT22;27562;47.524;12.404;2022-10-18T04:54:49;6.40;99.90
41882;DHT22;27562;47.524;12.404;2022-10-18T04:57:14;6.40;99.90
41882;DHT22;27562;47.524;12.404;2022-10-18T04:59:40;6.40;99.90
41882;DHT22;27562;47.524;12.404;2022-10-18T05:02:06;6.40;99.90
41882;DHT22;27562;47.524;12.404;2022-10-18T05:04:31;6.40;99.90
41882;DHT22;27562;47.524;12.404;2022-10-18T05:06:57;6.30;99.90
41882;DHT22;27562;47.524;12.404;2022-10-18T05:09:22;6.30;99.90
41882;DHT22;27562;47.524;12.404;2022-10-18T05:11:49;6.30;99.90
41882;DHT22;27562;47.524;12.404;2022-10-18T05:14:14;6.30;99.90
41882;DHT22;27562;47.524;12.404;2022-10-18T05:16:40;6.30;99.90
41882;DHT22;27562;47.524;12.404;2022-10-18T05:19:06;6.20;99.90
41882;DHT22;27562;47.524;12.404;2022-10-18T05:21:32;6.20;99.90
41882;DHT22;27562;47.524;12.404;2022-10-18T05:23:57;6.20;99.90
41882;DHT22;27562;47.524;12.404;2022-10-18T05:26:23;6.20;99.90
41882;DHT22;27562;47.524;12.404;2022-10-18T05:28:48;6.10;99.90
41882;DHT22;27562;47.524;12.404;2022-10-18T05:31:14;6.10;99.90
41882;DHT22;27562;47.524;12.404;2022-10-18T05:33:40;6.10;99.90
41882;DHT22;27562;47.524;12.404;2022-10-18T05:36:06;6.00;99.90
41882;DHT22;27562;47.524;12.404;2022-10-18T05:38:31;6.10;99.90
41882;DHT22;27562;47.524;12.404;2022-10-18T05:40:57;6.00;99.90
41882;DHT22;27562;47.524;12.404;2022-10-18T05:43:26;6.00;99.90
41882;DHT22;27562;47.524;12.404;2022-10-18T05:45:51;6.00;99.90
41882;DHT22;27562;47.524;12.404;2022-10-18T05:48:17;5.90;99.90
41882;DHT22;27562;47.524;12.404;2022-10-18T05:50:42;5.90;99.90
41882;DHT22;27562;47.524;12.404;2022-10-18T05:53:08;5.90;99.90
41882;DHT22;27562;47.524;12.404;2022-10-18T05:55:34;5.90;99.90
41882;DHT22;27562;47.524;12.404;2022-10-18T05:57:59;5.90;99.90
41882;DHT22;27562;47.524;12.404;2022-10-18T06:00:25;5.90;99.90
41882;DHT22;27562;47.524;12.404;2022-10-18T06:02:51;6.00;99.90
41882;DHT22;27562;47.524;12.404;2022-10-18T06:05:17;6.00;99.90
41882;DHT22;27562;47.524;12.404;2022-10-18T06:07:42;6.00;99.90
41882;DHT22;27562;47.524;12.404;2022-10-18T06:10:08;6.00;99.90
41882;DHT22;27562;47.524;12.404;2022-10-18T06:12:33;6.10;99.90
41882;DHT22;27562;47.524;12.404;2022-10-18T06:14:59;6.10;99.90
41882;DHT22;27562;47.524;12.404;2022-10-18T06:17:24;6.10;99.90
41882;DHT22;27562;47.524;12.404;2022-10-18T06:19:50;6.10;99.90
41882;DHT22;27562;47.524;12.404;2022-10-18T06:22:16;6.10;99.90
41882;DHT22;27562;47.524;12.404;2022-10-18T06:24:41;6.20;99.90
41882;DHT22;27562;47.524;12.404;2022-10-18T06:27:07;6.20;99.90
41882;DHT22;27562;47.524;12.404;2022-10-18T06:29:34;6.30;99.90
41882;DHT22;27562;47.524;12.404;2022-10-18T06:31:59;6.40;99.90
41882;DHT22;27562;47.524;12.404;2022-10-18T06:34:25;6.40;99.90
41882;DHT22;27562;47.524;12.404;2022-10-18T06:36:50;6.50;99.90
41882;DHT22;27562;47.524;12.404;2022-10-18T06:39:16;6.50;99.90
41882;DHT22;27562;47.524;12.404;2022-10-18T06:41:41;6.60;99.90
41882;DHT22;27562;47.524;12.404;2022-10-18T06:44:08;6.70;99.90
41882;DHT22;27562;47.524;12.404;2022-10-18T06:46:41;6.70;99.90
41882;DHT22;27562;47.524;12.404;2022-10-18T06:49:07;6.90;99.90
41882;DHT22;27562;47.524;12.404;2022-10-18T06:51:32;7.00;99.90
41882;DHT22;27562;47.524;12.404;2022-10-18T06:53:58;7.10;99.90
41882;DHT22;27562;47.524;12.404;2022-10-18T06:56:23;7.20;99.90
41882;DHT22;27562;47.524;12.404;2022-10-18T06:58:49;7.30;99.90
41882;DHT22;27562;47.524;12.404;2022-10-18T07:01:15;7.30;99.90
41882;DHT22;27562;47.524;12.404;2022-10-18T07:03:41;7.40;99.90
41882;DHT22;27562;47.524;12.404;2022-10-18T07:06:07;7.40;99.90
41882;DHT22;27562;47.524;12.404;2022-10-18T07:08:33;7.40;99.90
41882;DHT22;27562;47.524;12.404;2022-10-18T07:10:59;7.50;99.90
41882;DHT22;27562;47.524;12.404;2022-10-18T07:13:26;7.50;99.90
41882;DHT22;27562;47.524;12.404;2022-10-18T07:15:59;7.60;99.90
41882;DHT22;27562;47.524;12.404;2022-10-18T07:18:25;7.70;99.90
41882;DHT22;27562;47.524;12.404;2022-10-18T07:20:51;7.80;99.90
41882;DHT22;27562;47.524;12.404;2022-10-18T07:23:16;7.90;99.90
41882;DHT22;27562;47.524;12.404;2022-10-18T07:25:42;8.00;99.90
41882;DHT22;27562;47.524;12.404;2022-10-18T07:28:08;8.10;99.90
41882;DHT22;27562;47.524;12.404;2022-10-18T07:30:33;8.20;99.90
41882;DHT22;27562;47.524;12.404;2022-10-18T07:32:59;8.30;99.90
41882;DHT22;27562;47.524;12.404;2022-10-18T07:35:24;8.40;99.90
41882;DHT22;27562;47.524;12.404;2022-10-18T07:37:50;8.50;99.90
41882;DHT22;27562;47.524;12.404;2022-10-18T07:40:15;8.60;99.90
41882;DHT22;27562;47.524;12.404;2022-10-18T07:42:41;8.70;99.90
41882;DHT22;27562;47.524;12.404;2022-10-18T07:45:07;8.80;99.90
41882;DHT22;27562;47.524;12.404;2022-10-18T07:47:32;8.90;99.90
41882;DHT22;27562;47.524;12.404;2022-10-18T07:49:58;9.00;99.90
41882;DHT22;27562;47.524;12.404;2022-10-18T07:52:24;9.00;99.90
41882;DHT22;27562;47.524;12.404;2022-10-18T07:54:49;9.20;99.90
41882;DHT22;27562;47.524;12.404;2022-10-18T07:57:15;9.30;99.90
41882;DHT22;27562;47.524;12.404;2022-10-18T07:59:40;9.40;99.90
41882;DHT22;27562;47.524;12.404;2022-10-18T08:02:06;9.50;99.90
41882;DHT22;27562;47.524;12.404;2022-10-18T08:04:31;9.60;99.90
41882;DHT22;27562;47.524;12.404;2022-10-18T08:06:57;9.80;99.90
41882;DHT22;27562;47.524;12.404;2022-10-18T08:09:22;9.90;99.90
41882;DHT22;27562;47.524;12.404;2022-10-18T08:11:48;10.00;99.90
41882;DHT22;27562;47.524;12.404;2022-10-18T08:14:13;10.10;99.90
41882;DHT22;27562;47.524;12.404;2022-10-18T08:16:39;10.20;99.90
41882;DHT22;27562;47.524;12.404;2022-10-18T08:19:05;10.30;99.90
41882;DHT22;27562;47.524;12.404;2022-10-18T08:21:30;10.40;99.90
41882;DHT22;27562;47.524;12.404;2022-10-18T08:23:56;10.50;99.90
41882;DHT22;27562;47.524;12.404;2022-10-18T08:26:21;10.60;99.90
41882;DHT22;27562;47.524;12.404;2022-10-18T08:28:47;10.70;99.90
41882;DHT22;27562;47.524;12.404;2022-10-18T08:31:14;10.80;99.90
41882;DHT22;27562;47.524;12.404;2022-10-18T08:33:43;11.00;99.90
41882;DHT22;27562;47.524;12.404;2022-10-18T08:36:11;11.10;99.90
41882;DHT22;27562;47.524;12.404;2022-10-18T08:38:37;11.30;99.90
41882;DHT22;27562;47.524;12.404;2022-10-18T08:41:27;11.40;99.90
41882;DHT22;27562;47.524;12.404;2022-10-18T08:43:51;11.60;99.90
41882;DHT22;27562;47.524;12.404;2022-10-18T08:46:20;11.70;99.90
41882;DHT22;27562;47.524;12.404;2022-10-18T08:48:47;11.80;99.90
41882;DHT22;27562;47.524;12.404;2022-10-18T08:51:34;11.90;99.90
41882;DHT22;27562;47.524;12.404;2022-10-18T08:54:03;12.10;99.90
41882;DHT22;27562;47.524;12.404;2022-10-18T08:56:30;12.20;99.90
41882;DHT22;27562;47.524;12.404;2022-10-18T08:58:56;12.30;99.90
41882;DHT22;27562;47.524;12.404;2022-10-18T09:06:43;12.70;99.90
41882;DHT22;27562;47.524;12.404;2022-10-18T09:19:49;13.30;99.90
41882;DHT22;27562;47.524;12.404;2022-10-18T09:24:23;13.60;99.90
41882;DHT22;27562;47.524;12.404;2022-10-18T09:26:51;13.60;99.90
41882;DHT22;27562;47.524;12.404;2022-10-18T09:29:27;13.70;99.90
41882;DHT22;27562;47.524;12.404;2022-10-18T09:32:03;13.80;99.90
41882;DHT22;27562;47.524;12.404;2022-10-18T09:36:57;14.00;99.90
41882;DHT22;27562;47.524;12.404;2022-10-18T09:39:34;14.00;99.90
41882;DHT22;27562;47.524;12.404;2022-10-18T09:42:10;14.20;99.90
41882;DHT22;27562;47.524;12.404;2022-10-18T09:44:55;14.30;99.90
41882;DHT22;27562;47.524;12.404;2022-10-18T09:50:02;14.60;99.90
41882;DHT22;27562;47.524;12.404;2022-10-18T09:52:40;14.70;99.90
41882;DHT22;27562;47.524;12.404;2022-10-18T09:58:01;15.00;99.90
41882;DHT22;27562;47.524;12.404;2022-10-18T10:00:34;15.10;99.90
41882;DHT22;27562;47.524;12.404;2022-10-18T10:03:06;15.20;99.90
41882;DHT22;27562;47.524;12.404;2022-10-18T10:05:34;15.30;99.90
41882;DHT22;27562;47.524;12.404;2022-10-18T10:08:00;15.40;99.90
41882;DHT22;27562;47.524;12.404;2022-10-18T10:10:28;15.50;99.90
41882;DHT22;27562;47.524;12.404;2022-10-18T10:15:28;15.70;99.90
41882;DHT22;27562;47.524;12.404;2022-10-18T10:18:02;15.80;99.90
41882;DHT22;27562;47.524;12.404;2022-10-18T10:20:43;15.90;99.90
41882;DHT22;27562;47.524;12.404;2022-10-18T10:23:52;16.00;99.90
41882;DHT22;27562;47.524;12.404;2022-10-18T10:26:00;16.10;99.90
41882;DHT22;27562;47.524;12.404;2022-10-18T10:28:27;16.30;99.90
41882;DHT22;27562;47.524;12.404;2022-10-18T10:30:53;16.50;99.90
41882;DHT22;27562;47.524;12.404;2022-10-18T10:36:00;16.80;99.90
41882;DHT22;27562;47.524;12.404;2022-10-18T10:38:26;17.10;99.90
41882;DHT22;27562;47.524;12.404;2022-10-18T10:40:53;17.10;99.90
41882;DHT22;27562;47.524;12.404;2022-10-18T10:43:26;17.30;99.90
41882;DHT22;27562;47.524;12.404;2022-10-18T10:48:46;17.40;99.90
41882;DHT22;27562;47.524;12.404;2022-10-18T10:51:12;17.50;99.90
41882;DHT22;27562;47.524;12.404;2022-10-18T10:53:56;17.70;99.90
41882;DHT22;27562;47.524;12.404;2022-10-18T10:56:26;17.80;99.90
41882;DHT22;27562;47.524;12.404;2022-10-18T10:58:53;18.00;99.90
41882;DHT22;27562;47.524;12.404;2022-10-18T11:01:21;18.10;99.90
41882;DHT22;27562;47.524;12.404;2022-10-18T11:03:47;18.20;99.90
41882;DHT22;27562;47.524;12.404;2022-10-18T11:06:30;18.30;99.90
41882;DHT22;27562;47.524;12.404;2022-10-18T11:08:56;18.30;99.90
41882;DHT22;27562;47.524;12.404;2022-10-18T11:11:32;18.30;99.90
41882;DHT22;27562;47.524;12.404;2022-10-18T11:14:15;18.40;99.90
41882;DHT22;27562;47.524;12.404;2022-10-18T11:17:00;18.40;99.80
41882;DHT22;27562;47.524;12.404;2022-10-18T11:21:52;18.60;99.50
41882;DHT22;27562;47.524;12.404;2022-10-18T11:24:18;18.60;99.90
41882;DHT22;27562;47.524;12.404;2022-10-18T11:26:58;18.70;99.90
41882;DHT22;27562;47.524;12.404;2022-10-18T11:29:43;18.80;99.90
41882;DHT22;27562;47.524;12.404;2022-10-18T11:32:24;18.90;99.80
41882;DHT22;27562;47.524;12.404;2022-10-18T11:48:37;19.40;97.70
41882;DHT22;27562;47.524;12.404;2022-10-18T12:05:52;20.30;97.20
41882;DHT22;27562;47.524;12.404;2022-10-18T12:08:21;20.30;97.00
41882;DHT22;27562;47.524;12.404;2022-10-18T12:10:48;20.50;96.30
41882;DHT22;27562;47.524;12.404;2022-10-18T12:13:17;20.60;94.20
41882;DHT22;27562;47.524;12.404;2022-10-18T12:15:43;20.60;94.00
41882;DHT22;27562;47.524;12.404;2022-10-18T12:18:10;20.70;95.80
41882;DHT22;27562;47.524;12.404;2022-10-18T12:20:41;20.80;94.30
41882;DHT22;27562;47.524;12.404;2022-10-18T12:23:16;20.90;95.30
41882;DHT22;27562;47.524;12.404;2022-10-18T12:25:45;21.00;94.60
41882;DHT22;27562;47.524;12.404;2022-10-18T12:33:12;21.20;94.50
41882;DHT22;27562;47.524;12.404;2022-10-18T12:35:43;21.30;95.10
41882;DHT22;27562;47.524;12.404;2022-10-18T12:38:22;21.40;93.90
41882;DHT22;27562;47.524;12.404;2022-10-18T12:40:50;21.40;92.80
41882;DHT22;27562;47.524;12.404;2022-10-18T12:43:21;21.50;92.30
41882;DHT22;27562;47.524;12.404;2022-10-18T12:45:54;21.60;93.20
41882;DHT22;27562;47.524;12.404;2022-10-18T12:51:02;21.50;88.30
41882;DHT22;27562;47.524;12.404;2022-10-18T12:53:28;21.40;90.40
41882;DHT22;27562;47.524;12.404;2022-10-18T12:55:54;21.30;90.90
41882;DHT22;27562;47.524;12.404;2022-10-18T12:58:29;21.30;91.00
41882;DHT22;27562;47.524;12.404;2022-10-18T13:00:56;21.30;91.90
41882;DHT22;27562;47.524;12.404;2022-10-18T13:03:28;21.30;91.30
41882;DHT22;27562;47.524;12.404;2022-10-18T13:05:56;21.30;90.60
41882;DHT22;27562;47.524;12.404;2022-10-18T13:16:11;21.30;91.90
41882;DHT22;27562;47.524;12.404;2022-10-18T13:18:46;21.40;91.50
41882;DHT22;27562;47.524;12.404;2022-10-18T13:28:49;21.40;91.70
41882;DHT22;27562;47.524;12.404;2022-10-18T13:33:42;21.30;91.50
41882;DHT22;27562;47.524;12.404;2022-10-18T13:46:23;21.00;90.30
41882;DHT22;27562;47.524;12.404;2022-10-18T13:48:50;21.00;90.20
41882;DHT22;27562;47.524;12.404;2022-10-18T13:53:47;20.90;91.20
41882;DHT22;27562;47.524;12.404;2022-10-18T14:04:26;20.80;91.00
41882;DHT22;27562;47.524;12.404;2022-10-18T14:06:57;20.80;92.00
41882;DHT22;27562;47.524;12.404;2022-10-18T14:09:24;20.80;92.90
41882;DHT22;27562;47.524;12.404;2022-10-18T14:12:00;20.80;94.70
41882;DHT22;27562;47.524;12.404;2022-10-18T14:14:32;20.80;93.70
41882;DHT22;27562;47.524;12.404;2022-10-18T14:19:46;20.70;93.30
41882;DHT22;27562;47.524;12.404;2022-10-18T14:24:43;20.50;92.80
41882;DHT22;27562;47.524;12.404;2022-10-18T14:27:10;20.50;93.90
41882;DHT22;27562;47.524;12.404;2022-10-18T14:29:37;20.40;94.60
41882;DHT22;27562;47.524;12.404;2022-10-18T14:32:06;20.40;94.70
41882;DHT22;27562;47.524;12.404;2022-10-18T14:34:32;20.50;94.70
41882;DHT22;27562;47.524;12.404;2022-10-18T14:36:58;20.40;95.10
41882;DHT22;27562;47.524;12.404;2022-10-18T14:39:25;20.40;94.10
41882;DHT22;27562;47.524;12.404;2022-10-18T14:41:53;20.30;92.90
41882;DHT22;27562;47.524;12.404;2022-10-18T14:44:20;20.30;93.40
41882;DHT22;27562;47.524;12.404;2022-10-18T14:49:18;20.30;93.20
41882;DHT22;27562;47.524;12.404;2022-10-18T14:51:44;20.20;92.90
41882;DHT22;27562;47.524;12.404;2022-10-18T14:54:30;20.10;92.30
41882;DHT22;27562;47.524;12.404;2022-10-18T14:56:56;20.10;92.80
41882;DHT22;27562;47.524;12.404;2022-10-18T14:59:23;20.00;93.00
41882;DHT22;27562;47.524;12.404;2022-10-18T15:01:50;19.90;93.00
41882;DHT22;27562;47.524;12.404;2022-10-18T15:04:16;19.90;93.30
41882;DHT22;27562;47.524;12.404;2022-10-18T15:06:42;19.80;94.10
41882;DHT22;27562;47.524;12.404;2022-10-18T15:09:08;19.70;95.90
41882;DHT22;27562;47.524;12.404;2022-10-18T15:11:35;19.60;96.40
41882;DHT22;27562;47.524;12.404;2022-10-18T15:14:04;19.60;96.10
41882;DHT22;27562;47.524;12.404;2022-10-18T15:16:34;19.60;95.70
41882;DHT22;27562;47.524;12.404;2022-10-18T15:19:04;19.50;95.80
41882;DHT22;27562;47.524;12.404;2022-10-18T15:21:29;19.40;95.80
41882;DHT22;27562;47.524;12.404;2022-10-18T15:24:16;19.30;96.60
41882;DHT22;27562;47.524;12.404;2022-10-18T15:26:42;19.30;97.30
41882;DHT22;27562;47.524;12.404;2022-10-18T15:29:14;19.30;97.90
41882;DHT22;27562;47.524;12.404;2022-10-18T15:31:40;19.20;97.90
41882;DHT22;27562;47.524;12.404;2022-10-18T15:34:08;19.00;98.20
41882;DHT22;27562;47.524;12.404;2022-10-18T15:36:34;18.90;98.50
41882;DHT22;27562;47.524;12.404;2022-10-18T15:39:11;18.80;98.70
41882;DHT22;27562;47.524;12.404;2022-10-18T15:41:47;18.80;98.90
41882;DHT22;27562;47.524;12.404;2022-10-18T15:44:17;18.80;99.40
41882;DHT22;27562;47.524;12.404;2022-10-18T15:46:44;18.70;99.90
41882;DHT22;27562;47.524;12.404;2022-10-18T15:51:51;18.60;99.90
41882;DHT22;27562;47.524;12.404;2022-10-18T15:54:28;18.50;99.90
41882;DHT22;27562;47.524;12.404;2022-10-18T15:56:54;18.40;99.90
41882;DHT22;27562;47.524;12.404;2022-10-18T15:59:20;18.30;99.90
41882;DHT22;27562;47.524;12.404;2022-10-18T16:01:46;18.20;99.90
41882;DHT22;27562;47.524;12.404;2022-10-18T16:06:43;17.90;99.90
41882;DHT22;27562;47.524;12.404;2022-10-18T16:09:14;17.90;99.90
41882;DHT22;27562;47.524;12.404;2022-10-18T16:11:40;17.80;99.90
41882;DHT22;27562;47.524;12.404;2022-10-18T16:14:05;17.60;99.90
41882;DHT22;27562;47.524;12.404;2022-10-18T16:16:31;17.50;99.90
41882;DHT22;27562;47.524;12.404;2022-10-18T16:18:57;17.40;99.90
41882;DHT22;27562;47.524;12.404;2022-10-18T16:21:33;17.30;99.90
41882;DHT22;27562;47.524;12.404;2022-10-18T16:23:58;17.20;99.90
41882;DHT22;27562;47.524;12.404;2022-10-18T16:26:24;17.00;99.90
41882;DHT22;27562;47.524;12.404;2022-10-18T16:28:50;16.90;99.90
41882;DHT22;27562;47.524;12.404;2022-10-18T16:31:17;16.80;99.90
41882;DHT22;27562;47.524;12.404;2022-10-18T16:33:43;16.70;99.90
41882;DHT22;27562;47.524;12.404;2022-10-18T16:36:11;16.60;99.90
41882;DHT22;27562;47.524;12.404;2022-10-18T16:38:37;16.40;99.90
41882;DHT22;27562;47.524;12.404;2022-10-18T16:41:03;16.30;99.90
41882;DHT22;27562;47.524;12.404;2022-10-18T16:43:29;16.20;99.90
41882;DHT22;27562;47.524;12.404;2022-10-18T16:45:55;16.20;99.90
41882;DHT22;27562;47.524;12.404;2022-10-18T16:48:22;16.10;99.90
41882;DHT22;27562;47.524;12.404;2022-10-18T16:50:48;16.10;99.90
41882;DHT22;27562;47.524;12.404;2022-10-18T16:53:13;16.00;99.90
41882;DHT22;27562;47.524;12.404;2022-10-18T16:55:40;15.90;99.90
41882;DHT22;27562;47.524;12.404;2022-10-18T16:58:06;15.90;99.90
41882;DHT22;27562;47.524;12.404;2022-10-18T17:00:32;15.80;99.90
41882;DHT22;27562;47.524;12.404;2022-10-18T17:02:57;15.80;99.90
41882;DHT22;27562;47.524;12.404;2022-10-18T17:05:23;15.80;99.90
41882;DHT22;27562;47.524;12.404;2022-10-18T17:07:49;15.70;99.90
41882;DHT22;27562;47.524;12.404;2022-10-18T17:10:16;15.70;99.90
41882;DHT22;27562;47.524;12.404;2022-10-18T17:12:42;15.80;99.90
41882;DHT22;27562;47.524;12.404;2022-10-18T17:15:07;15.90;99.90
41882;DHT22;27562;47.524;12.404;2022-10-18T17:17:34;16.00;99.90
41882;DHT22;27562;47.524;12.404;2022-10-18T17:20:00;16.00;99.90
41882;DHT22;27562;47.524;12.404;2022-10-18T17:22:26;16.10;99.90
41882;DHT22;27562;47.524;12.404;2022-10-18T17:24:51;16.20;99.90
41882;DHT22;27562;47.524;12.404;2022-10-18T17:27:17;16.20;99.90
41882;DHT22;27562;47.524;12.404;2022-10-18T17:29:43;16.30;99.90
41882;DHT22;27562;47.524;12.404;2022-10-18T17:32:09;16.30;99.90
41882;DHT22;27562;47.524;12.404;2022-10-18T17:34:34;16.30;99.90
41882;DHT22;27562;47.524;12.404;2022-10-18T17:37:01;16.30;99.90
41882;DHT22;27562;47.524;12.404;2022-10-18T17:39:27;16.30;99.90
41882;DHT22;27562;47.524;12.404;2022-10-18T17:41:52;16.30;99.90
41882;DHT22;27562;47.524;12.404;2022-10-18T17:44:20;16.20;99.90
41882;DHT22;27562;47.524;12.404;2022-10-18T17:46:46;16.00;99.90
41882;DHT22;27562;47.524;12.404;2022-10-18T17:49:12;16.00;99.90
41882;DHT22;27562;47.524;12.404;2022-10-18T17:51:38;16.00;99.90
41882;DHT22;27562;47.524;12.404;2022-10-18T17:54:05;15.90;99.90